Montville, Maine
Current Conditions -  °F | °C
As of 8:35 PM on Tuesday 27 Jan 2015 (Local Time) from KWVL Reporting Station
Overcast Overcast  
Wind Chill: -6°   Ceiling: 900
Heat Index: 12°   Visibility: 0.75mi
Dew Point: 12°   Wind: 21mph
Humidity: 100%   Direction: 360°N
Pressure: 29.57"   Gusts: 30mph
Location:  44.4643°N, 69.3069°W
Report Text: KWVL 280135Z 36018G26KT 3/4SM OVC009 M11/M11 A2957 RMK AO1
Loading
Personal Weather Stations






























Interactive Weather Map New forecast layout! Learn more

10-Day Weather Forecast

Advertisements
Track Severe Weather on mobile